Time;durP1;ratioP1;P1;durP2;ratioP2;P2;SDS_P1;SDS_P2;PMS_P1;PMS_P2;Temp;Humidity;BMP_temperature;BMP_pressure;BME280_temperature;BME280_humidity;BME280_pressure;Samples;Min_cycle;Max_cycle;Signal;HPM_P1;HPM_P2
2024/03/11 00:03:33;;;;;;;;;;;;;;;18.51;43.45;97833.25;10324748;28;930;-73
2024/03/11 00:08:31;;;;;;;;;;;;;;;18.52;43.51;97834.09;10329939;28;988;-73
2024/03/11 00:13:33;;;;;;;;;;;;;;;18.50;43.60;97831.59;10332496;28;1890;-74
2024/03/11 00:18:29;;;;;;;;;;;;;;;18.50;43.58;97831.59;10332413;28;834;-74
2024/03/11 00:23:25;;;;;;;;;;;;;;;18.49;43.69;97842.25;10332854;28;906;-74
2024/03/11 00:28:23;;;;;;;;;;;;;;;18.49;43.67;97834.31;10332561;28;1512;-74
2024/03/11 00:33:18;;;;;;;;;;;;;;;18.48;43.66;97836.13;10331904;28;1977;-74
2024/03/11 00:38:14;;;;;;;;;;;;;;;18.46;43.56;97848.59;10332329;28;873;-74
2024/03/11 00:43:11;;;;;;;;;;;;;;;18.46;43.84;97845.94;10331987;28;782;-74
2024/03/11 00:48:11;;;;;;;;;;;;;;;18.45;43.57;97852.19;10331787;28;948;-74
2024/03/11 00:53:07;;;;;;;;;;;;;;;18.44;43.50;97850.50;10331046;28;1890;-74
2024/03/11 00:58:03;;;;;;;;;;;;;;;18.44;43.63;97852.31;10330954;28;917;-74
2024/03/11 01:03:01;;;;;;;;;;;;;;;18.42;43.72;97852.44;10331434;28;770;-74
2024/03/11 01:07:57;;;;;;;;;;;;;;;18.41;43.65;97848.09;10331675;28;954;-74
2024/03/11 01:12:52;;;;;;;;;;;;;;;18.41;43.61;97848.09;10330566;28;1915;-74
2024/03/11 01:17:48;;;;;;;;;;;;;;;18.40;43.57;97849.06;10330409;28;893;-73
2024/03/11 01:22:44;;;;;;;;;;;;;;;18.39;43.59;97853.50;10330007;28;761;-74
2024/03/11 01:27:41;;;;;;;;;;;;;;;18.38;43.53;97845.69;10329892;28;807;-74
2024/03/11 01:32:38;;;;;;;;;;;;;;;18.37;43.63;97846.66;10330495;28;1910;-74
2024/03/11 01:37:36;;;;;;;;;;;;;;;18.36;43.53;97851.06;10329985;28;892;-74
2024/03/11 01:42:32;;;;;;;;;;;;;;;18.36;43.66;97850.25;10329136;28;889;-74
2024/03/11 01:47:28;;;;;;;;;;;;;;;18.36;43.40;97858.16;10330324;28;945;-74
2024/03/11 01:52:24;;;;;;;;;;;;;;;18.35;43.76;97852.03;10328831;28;1894;-74
2024/03/11 01:57:20;;;;;;;;;;;;;;;18.34;43.57;97852.19;10328720;28;865;-74
2024/03/11 02:02:16;;;;;;;;;;;;;;;18.33;43.65;97851.31;10329756;28;854;-74
2024/03/11 02:07:14;;;;;;;;;;;;;;;18.31;43.60;97853.25;10328361;28;850;-74
2024/03/11 02:12:10;;;;;;;;;;;;;;;18.31;43.64;97853.25;10328253;28;1895;-74
2024/03/11 02:17:06;;;;;;;;;;;;;;;18.32;43.66;97851.44;10328501;28;1697;-74
2024/03/11 02:22:02;;;;;;;;;;;;;;;18.31;43.80;97857.66;10327108;28;989;-74
2024/03/11 02:26:58;;;;;;;;;;;;;;;18.29;43.46;97855.16;10328077;28;788;-74
2024/03/11 02:31:54;;;;;;;;;;;;;;;18.28;43.57;97853.44;10326635;28;1910;-74
2024/03/11 02:36:53;;;;;;;;;;;;;;;18.27;43.54;97851.78;10326556;28;929;-73
2024/03/11 02:41:51;;;;;;;;;;;;;;;18.27;43.68;97853.59;10327620;28;869;-74
2024/03/11 02:46:47;;;;;;;;;;;;;;;18.28;43.68;97857.91;10326705;28;933;-74
2024/03/11 02:51:44;;;;;;;;;;;;;;;18.26;43.60;97867.72;10325930;28;1874;-74
2024/03/11 02:56:40;;;;;;;;;;;;;;;18.24;43.60;97867.84;10326954;28;846;-74
2024/03/11 03:01:37;;;;;;;;;;;;;;;18.23;43.57;97865.31;10326834;28;885;-74
2024/03/11 03:06:33;;;;;;;;;;;;;;;18.23;43.71;97866.16;10326702;28;782;-74
2024/03/11 03:11:29;;;;;;;;;;;;;;;18.23;43.45;97857.41;10326878;28;1957;-74
2024/03/11 03:16:25;;;;;;;;;;;;;;;18.22;43.78;97851.28;10325856;28;820;-74
2024/03/11 03:21:24;;;;;;;;;;;;;;;18.22;43.54;97851.28;10326333;28;858;-74
2024/03/11 03:26:24;;;;;;;;;;;;;;;18.19;43.79;97843.63;10325658;28;759;-74
2024/03/11 03:31:22;;;;;;;;;;;;;;;18.20;43.66;97841.81;10326080;28;1914;-74
2024/03/11 03:36:19;;;;;;;;;;;;;;;18.18;43.65;97836.63;10325358;28;892;-74
2024/03/11 03:41:15;;;;;;;;;;;;;;;18.18;43.70;97837.50;10325009;28;786;-74
2024/03/11 03:46:11;;;;;;;;;;;;;;;18.18;43.67;97847.19;10325278;28;783;-74
2024/03/11 03:51:07;;;;;;;;;;;;;;;18.17;43.66;97846.34;10325235;28;1901;-74
2024/03/11 03:56:03;;;;;;;;;;;;;;;18.15;43.59;97844.78;10325025;28;952;-73
2024/03/11 04:00:59;;;;;;;;;;;;;;;18.16;43.80;97867.59;10324962;28;880;-74
2024/03/11 04:05:55;;;;;;;;;;;;;;;18.16;43.73;97875.50;10324831;28;825;-74
2024/03/11 04:10:51;;;;;;;;;;;;;;;18.14;43.68;97862.41;10325135;28;1902;-74
2024/03/11 04:15:47;;;;;;;;;;;;;;;18.14;43.47;97859.78;10324715;28;810;-74
2024/03/11 04:20:43;;;;;;;;;;;;;;;18.12;43.56;97859.03;10324547;28;782;-74
2024/03/11 04:25:39;;;;;;;;;;;;;;;18.12;43.63;97855.56;10325031;28;910;-74
2024/03/11 04:30:34;;;;;;;;;;;;;;;18.11;43.67;97865.28;10324858;28;1985;-74
2024/03/11 04:35:30;;;;;;;;;;;;;;;18.11;43.58;97853.91;10324918;28;968;-74
2024/03/11 04:40:26;;;;;;;;;;;;;;;18.10;43.70;97863.63;10324103;28;946;-74
2024/03/11 04:45:22;;;;;;;;;;;;;;;18.09;43.57;97871.63;10323395;28;1169;-74
2024/03/11 04:50:24;;;;;;;;;;;;;;;18.10;43.61;97865.38;10323899;28;2035;-74
2024/03/11 04:55:20;;;;;;;;;;;;;;;18.11;43.67;97870.56;10327562;28;855;-74
2024/03/11 05:00:17;;;;;;;;;;;;;;;18.11;43.74;97861.81;10330936;28;784;-73
2024/03/11 05:05:14;;;;;;;;;;;;;;;18.12;43.64;97858.22;10330817;28;806;-74
2024/03/11 05:10:12;;;;;;;;;;;;;;;18.12;43.60;97856.41;10330810;28;1972;-74
2024/03/11 05:15:09;;;;;;;;;;;;;;;18.12;43.69;97866.94;10330603;28;908;-74
2024/03/11 05:20:12;;;;;;;;;;;;;;;18.13;43.61;97860.75;10330158;28;973;-74
2024/03/11 05:25:08;;;;;;;;;;;;;;;18.14;43.76;97865.03;10330185;28;875;-74
2024/03/11 05:30:05;;;;;;;;;;;;;;;18.15;43.78;97864.09;10329660;28;1985;-74
2024/03/11 05:35:01;;;;;;;;;;;;;;;18.16;43.62;97865.78;10329044;28;879;-74
2024/03/11 05:39:59;;;;;;;;;;;;;;;18.17;43.83;97870.09;10329978;28;873;-73
2024/03/11 05:44:58;;;;;;;;;;;;;;;18.20;43.72;97868.19;10329193;28;853;-73
2024/03/11 05:49:54;;;;;;;;;;;;;;;18.20;43.79;97876.09;10329651;28;1905;-73
2024/03/11 05:54:50;;;;;;;;;;;;;;;18.21;43.86;97867.22;10329086;28;816;-74
2024/03/11 05:59:46;;;;;;;;;;;;;;;18.22;43.80;97868.91;10329230;28;831;-74
2024/03/11 06:04:42;;;;;;;;;;;;;;;18.22;43.74;97864.47;10327744;28;838;-73
2024/03/11 06:09:38;;;;;;;;;;;;;;;18.23;43.78;97867.94;10328115;28;1902;-73
2024/03/11 06:14:34;;;;;;;;;;;;;;;18.24;43.71;97877.56;10328858;28;910;-73
2024/03/11 06:19:29;;;;;;;;;;;;;;;18.25;43.87;97884.50;10328451;28;906;-73
2024/03/11 06:24:28;;;;;;;;;;;;;;;18.24;43.68;97886.31;10327722;28;987;-73
2024/03/11 06:29:26;;;;;;;;;;;;;;;18.25;43.69;97889.78;10327435;28;1918;-73
2024/03/11 06:34:23;;;;;;;;;;;;;;;18.26;43.87;97902.00;10327832;28;852;-74
2024/03/11 06:39:19;;;;;;;;;;;;;;;18.24;43.82;97896.84;10327616;28;793;-73
2024/03/11 06:44:17;;;;;;;;;;;;;;;18.25;43.77;97893.25;10326832;28;767;-73
2024/03/11 06:49:13;;;;;;;;;;;;;;;18.27;43.73;97898.41;10326475;28;981;-76
2024/03/11 06:54:09;;;;;;;;;;;;;;;18.27;43.74;97887.88;10327150;28;853;-73
2024/03/11 06:59:05;;;;;;;;;;;;;;;18.26;43.86;97902.00;10326191;28;1016;-73
2024/03/11 07:04:01;;;;;;;;;;;;;;;18.27;43.92;97911.59;10326131;28;914;-73
2024/03/11 07:08:57;;;;;;;;;;;;;;;18.26;43.90;97917.81;10326226;28;830;-75
2024/03/11 07:13:53;;;;;;;;;;;;;;;18.26;43.83;97928.38;10325799;28;1893;-73
2024/03/11 07:18:52;;;;;;;;;;;;;;;18.24;43.97;97936.41;10325260;28;807;-73
2024/03/11 07:23:48;;;;;;;;;;;;;;;18.23;43.92;97952.34;10326350;28;794;-77
2024/03/11 07:28:44;;;;;;;;;;;;;;;18.21;43.87;97956.88;10326270;28;1235;-74
2024/03/11 07:33:40;;;;;;;;;;;;;;;18.20;43.92;97955.19;10325375;28;1960;-75
2024/03/11 07:38:36;;;;;;;;;;;;;;;18.19;44.00;97962.28;10324685;28;1027;-75
2024/03/11 07:43:32;;;;;;;;;;;;;;;18.20;43.93;97965.75;10325806;28;937;-79
2024/03/11 07:48:28;;;;;;;;;;;;;;;18.20;43.90;97966.59;10325028;28;799;-71
2024/03/11 07:53:24;;;;;;;;;;;;;;;18.20;44.00;97965.75;10324933;28;1949;-71
2024/03/11 07:58:20;;;;;;;;;;;;;;;18.21;43.98;97972.69;10324871;28;1001;-71
2024/03/11 08:03:19;;;;;;;;;;;;;;;18.22;43.86;97990.22;10325077;28;767;-71
2024/03/11 08:08:17;;;;;;;;;;;;;;;18.23;43.91;97999.81;10325492;28;878;-71
2024/03/11 08:13:14;;;;;;;;;;;;;;;18.23;44.05;97994.53;10325431;28;1897;-71
2024/03/11 08:18:10;;;;;;;;;;;;;;;18.22;44.09;98001.59;10324556;28;901;-72
2024/03/11 08:23:06;;;;;;;;;;;;;;;18.22;43.86;98004.25;10325063;28;852;-71
2024/03/11 08:28:02;;;;;;;;;;;;;;;18.23;43.95;98008.56;10325148;28;1325;-70
2024/03/11 08:32:59;;;;;;;;;;;;;;;18.23;44.02;98013.81;10331865;28;1914;-71
2024/03/11 08:37:55;;;;;;;;;;;;;;;18.25;43.63;98011.09;10331762;28;857;-71
2024/03/11 08:42:51;;;;;;;;;;;;;;;18.24;43.89;98018.16;10332151;28;860;-71
2024/03/11 08:47:47;;;;;;;;;;;;;;;18.25;43.92;98024.28;10332013;28;779;-71
2024/03/11 08:52:45;;;;;;;;;;;;;;;18.25;44.04;98035.66;10331155;28;1955;-71
2024/03/11 08:57:41;;;;;;;;;;;;;;;18.24;43.71;98036.63;10330948;28;863;-71
2024/03/11 09:02:37;;;;;;;;;;;;;;;18.25;44.00;98051.47;10331937;28;838;-71
2024/03/11 09:07:33;;;;;;;;;;;;;;;18.25;43.83;98048.84;10331647;28;885;-71
2024/03/11 09:12:29;;;;;;;;;;;;;;;18.25;43.83;98054.13;10330429;28;1894;-71
2024/03/11 09:17:25;;;;;;;;;;;;;;;18.27;43.89;98064.56;10331110;28;830;-71
2024/03/11 09:22:21;;;;;;;;;;;;;;;18.26;43.88;98065.50;10330747;28;853;-71
2024/03/11 09:27:17;;;;;;;;;;;;;;;18.26;43.86;98076.94;10330008;28;840;-71
2024/03/11 09:32:13;;;;;;;;;;;;;;;18.27;43.81;98083.88;10328948;28;1990;-71
2024/03/11 09:37:09;;;;;;;;;;;;;;;18.27;43.79;98083.03;10330319;28;892;-72
2024/03/11 09:42:05;;;;;;;;;;;;;;;18.28;43.61;98087.34;10328689;28;1656;-70
2024/03/11 09:47:01;;;;;;;;;;;;;;;18.30;43.88;98098.63;10326989;28;1030;-71
2024/03/11 09:51:57;;;;;;;;;;;;;;;18.30;43.88;98102.09;10328840;28;1894;-70
2024/03/11 09:56:53;;;;;;;;;;;;;;;18.30;44.08;98110.03;10328735;28;775;-71
2024/03/11 10:01:52;;;;;;;;;;;;;;;18.31;43.84;98113.50;10329137;28;832;-71
2024/03/11 10:06:48;;;;;;;;;;;;;;;18.30;44.11;98117.94;10328287;28;936;-71
2024/03/11 10:11:44;;;;;;;;;;;;;;;18.31;44.15;98126.69;10327914;28;1959;-71
2024/03/11 10:16:40;;;;;;;;;;;;;;;18.32;44.06;98123.13;10327319;28;776;-71
2024/03/11 10:21:36;;;;;;;;;;;;;;;18.31;44.31;98132.81;10327566;28;793;-74
2024/03/11 10:26:40;;;;;;;;;;;;;;;18.32;44.14;98138.94;10327299;28;926;-71
2024/03/11 10:31:36;;;;;;;;;;;;;;;18.32;43.92;98139.78;10326940;28;1910;-71
2024/03/11 10:36:32;;;;;;;;;;;;;;;18.33;44.26;98156.44;10326521;28;853;-71
2024/03/11 10:41:28;;;;;;;;;;;;;;;18.32;44.14;98166.16;10326781;28;998;-72
2024/03/11 10:46:24;;;;;;;;;;;;;;;18.33;44.04;98169.63;10326487;28;819;-71
2024/03/11 10:51:21;;;;;;;;;;;;;;;18.33;44.12;98177.53;10326333;28;1890;-71
2024/03/11 10:56:19;;;;;;;;;;;;;;;18.33;44.12;98188.09;10326264;28;868;-73
2024/03/11 11:01:16;;;;;;;;;;;;;;;18.34;44.34;98195.06;10326129;28;845;-71
2024/03/11 11:06:14;;;;;;;;;;;;;;;18.33;44.13;98196.84;10325373;28;957;-72
2024/03/11 11:11:17;;;;;;;;;;;;;;;18.34;44.02;98200.34;10325599;28;2014;-70
2024/03/11 11:16:14;;;;;;;;;;;;;;;18.34;43.98;98213.53;10325146;28;883;-72
2024/03/11 11:21:10;;;;;;;;;;;;;;;18.34;43.99;98216.19;10325501;28;783;-71
2024/03/11 11:26:06;;;;;;;;;;;;;;;18.33;44.00;98223.22;10324875;28;839;-71
2024/03/11 11:31:02;;;;;;;;;;;;;;;18.35;44.09;98229.22;10324918;28;1910;-71
2024/03/11 11:35:58;;;;;;;;;;;;;;;18.35;43.96;98231.03;10324885;28;950;-71
2024/03/11 11:40:54;;;;;;;;;;;;;;;18.34;44.11;98240.75;10325065;28;830;-74
2024/03/11 11:45:54;;;;;;;;;;;;;;;18.35;44.02;98241.59;10324927;28;1204;-75
2024/03/11 11:50:52;;;;;;;;;;;;;;;18.36;44.23;98245.91;10325492;28;1890;-71
2024/03/11 11:55:51;;;;;;;;;;;;;;;18.34;44.02;98258.38;10323608;28;1082;-71
2024/03/11 12:00:47;;;;;;;;;;;;;;;18.36;43.98;98264.38;10325143;28;952;-70
2024/03/11 12:05:43;;;;;;;;;;;;;;;18.36;44.21;98261.72;10330843;28;817;-71
2024/03/11 12:10:39;;;;;;;;;;;;;;;18.35;43.87;98260.88;10332636;28;1882;-71
2024/03/11 12:15:35;;;;;;;;;;;;;;;18.35;44.17;98271.44;10332484;28;875;-71
2024/03/11 12:20:31;;;;;;;;;;;;;;;18.37;44.05;98276.63;10332380;28;817;-71
2024/03/11 12:25:33;;;;;;;;;;;;;;;18.36;44.30;98282.84;10331941;28;932;-71
2024/03/11 12:30:35;;;;;;;;;;;;;;;18.35;44.21;98287.28;10332475;28;1961;-74
2024/03/11 12:35:32;;;;;;;;;;;;;;;18.38;44.08;98291.50;10331562;28;762;-71
2024/03/11 12:40:34;;;;;;;;;;;;;;;18.38;44.23;98294.13;10331710;28;858;-72
2024/03/11 12:45:31;;;;;;;;;;;;;;;18.36;44.08;98310.06;10331054;28;1028;-71
2024/03/11 12:50:29;;;;;;;;;;;;;;;18.37;44.01;98309.13;10330997;28;1899;-71
2024/03/11 12:55:26;;;;;;;;;;;;;;;18.37;43.98;98310.91;10330715;28;862;-71
2024/03/11 13:00:22;;;;;;;;;;;;;;;18.36;43.91;98317.13;10330690;28;842;-71
2024/03/11 13:05:18;;;;;;;;;;;;;;;18.36;43.96;98327.69;10330450;28;865;-77
2024/03/11 13:10:15;;;;;;;;;;;;;;;18.37;44.04;98327.59;10330185;28;1894;-75
2024/03/11 13:15:13;;;;;;;;;;;;;;;18.36;44.12;98330.31;10329207;28;920;-71
2024/03/11 13:20:24;;;;;;;;;;;;;;;18.37;44.08;98345.22;10329888;28;994;-71
2024/03/11 13:25:21;;;;;;;;;;;;;;;18.37;43.94;98346.06;10329364;28;981;-71
2024/03/11 13:30:19;;;;;;;;;;;;;;;18.37;44.10;98359.25;10329767;28;1981;-71
2024/03/11 13:35:20;;;;;;;;;;;;;;;18.38;43.95;98365.34;10329306;28;1075;-71
2024/03/11 13:40:15;;;;;;;;;;;;;;;18.37;44.00;98366.31;10329181;28;948;-71
2024/03/11 13:45:12;;;;;;;;;;;;;;;18.36;43.76;98376.00;10329017;28;984;-72
2024/03/11 13:50:17;;;;;;;;;;;;;;;18.36;44.00;98386.56;10329532;28;1894;-71
2024/03/11 13:55:13;;;;;;;;;;;;;;;18.36;43.94;98383.91;10329073;28;894;-71
2024/03/11 14:00:18;;;;;;;;;;;;;;;18.37;44.02;98401.44;10329260;28;819;-72
2024/03/11 14:05:14;;;;;;;;;;;;;;;18.36;43.82;98401.53;10328952;28;893;-72
2024/03/11 14:10:10;;;;;;;;;;;;;;;18.37;43.97;98408.53;10328148;28;1898;-72
2024/03/11 14:15:12;;;;;;;;;;;;;;;18.36;44.00;98406.81;10327156;28;959;-72
2024/03/11 14:20:16;;;;;;;;;;;;;;;18.35;44.03;98400.69;10327636;28;790;-72
2024/03/11 14:25:13;;;;;;;;;;;;;;;18.36;43.93;98405.03;10327606;28;818;-72
2024/03/11 14:30:14;;;;;;;;;;;;;;;18.39;44.01;98409.25;10326841;28;1917;-71
2024/03/11 14:35:10;;;;;;;;;;;;;;;18.40;44.01;98410.94;10326941;28;979;-72
2024/03/11 14:40:09;;;;;;;;;;;;;;;18.39;43.88;98419.78;10327072;28;972;-72
2024/03/11 14:45:05;;;;;;;;;;;;;;;18.43;43.81;98420.47;10327226;28;973;-72
2024/03/11 14:50:15;;;;;;;;;;;;;;;18.42;43.78;98427.53;10327245;28;1898;-72
2024/03/11 14:55:10;;;;;;;;;;;;;;;18.45;43.80;98431.75;10327266;28;850;-72
2024/03/11 15:00:20;;;;;;;;;;;;;;;18.50;43.72;98435.78;10326050;28;911;-72
2024/03/11 15:05:18;;;;;;;;;;;;;;;18.53;43.81;98453.19;10325927;28;887;-71
2024/03/11 15:10:14;;;;;;;;;;;;;;;18.57;43.55;98454.66;10326385;28;1898;-71
2024/03/11 15:15:13;;;;;;;;;;;;;;;18.50;43.74;98456.88;10325684;28;1033;-72
2024/03/11 15:20:09;;;;;;;;;;;;;;;18.49;43.81;98456.97;10325524;28;815;-71
2024/03/11 15:25:06;;;;;;;;;;;;;;;18.54;43.71;98463.63;10325436;28;879;-71
2024/03/11 15:30:02;;;;;;;;;;;;;;;18.52;43.85;98467.31;10325060;28;1914;-72
2024/03/11 15:34:59;;;;;;;;;;;;;;;18.49;43.89;98486.84;10325292;28;947;-72
2024/03/11 15:39:55;;;;;;;;;;;;;;;18.47;43.99;98493.16;10324520;28;954;-71
2024/03/11 15:44:51;;;;;;;;;;;;;;;18.43;43.88;98510.16;10324879;28;795;-76
2024/03/11 15:49:47;;;;;;;;;;;;;;;18.40;44.01;98505.94;10324877;28;1949;-73
2024/03/11 15:54:45;;;;;;;;;;;;;;;18.38;43.94;98513.09;10324848;28;951;-73
2024/03/11 15:59:41;;;;;;;;;;;;;;;18.35;44.18;98523.84;10324649;28;965;-73
2024/03/11 16:04:37;;;;;;;;;;;;;;;18.35;43.91;98524.69;10324592;28;961;-73
2024/03/11 16:14:48;;;;;;;;;;;;;;;18.33;43.99;98536.28;10323973;28;613;-73
2024/03/11 16:19:46;;;;;;;;;;;;;;;18.32;44.14;98546.00;10323735;28;794;-73
2024/03/11 16:24:42;;;;;;;;;;;;;;;18.30;44.09;98544.41;10324859;28;798;-72
2024/03/11 16:29:40;;;;;;;;;;;;;;;18.30;44.02;98554.94;10323905;28;1983;-73
2024/03/11 16:34:36;;;;;;;;;;;;;;;18.29;43.91;98554.09;10323935;28;973;-73
2024/03/11 16:39:32;;;;;;;;;;;;;;;18.29;44.06;98558.53;10324485;28;900;-73
2024/03/11 16:44:28;;;;;;;;;;;;;;;18.29;43.92;98579.66;10323827;28;818;-73
2024/03/11 16:49:24;;;;;;;;;;;;;;;18.28;43.91;98577.94;10324535;28;869;-73
2024/03/11 16:54:23;;;;;;;;;;;;;;;18.27;43.88;98589.44;10331537;28;1968;-72
2024/03/11 16:59:19;;;;;;;;;;;;;;;18.28;44.03;98593.75;10330803;28;782;-73
2024/03/11 17:04:14;;;;;;;;;;;;;;;18.28;44.09;98601.69;10331390;28;849;-76
2024/03/11 17:09:12;;;;;;;;;;;;;;;18.28;44.12;98609.59;10330629;28;941;-72
2024/03/11 17:14:08;;;;;;;;;;;;;;;18.27;44.02;98607.91;10330138;28;1956;-72
2024/03/11 17:19:06;;;;;;;;;;;;;;;18.28;44.08;98614.88;10330701;28;790;-73
2024/03/11 17:24:02;;;;;;;;;;;;;;;18.28;44.09;98617.50;10329967;28;786;-74
2024/03/11 17:28:59;;;;;;;;;;;;;;;18.29;44.20;98635.03;10330167;28;1093;-73
2024/03/11 17:33:55;;;;;;;;;;;;;;;18.28;44.17;98638.59;10330159;28;1914;-73
2024/03/11 17:38:51;;;;;;;;;;;;;;;18.28;44.14;98655.28;10329387;28;982;-72
2024/03/11 17:43:48;;;;;;;;;;;;;;;18.28;44.12;98654.44;10329197;28;963;-72
2024/03/11 17:48:46;;;;;;;;;;;;;;;18.28;44.02;98657.91;10328439;28;1130;-73
2024/03/11 17:53:44;;;;;;;;;;;;;;;18.28;44.43;98659.72;10328664;28;1948;-73
2024/03/11 17:58:40;;;;;;;;;;;;;;;18.28;44.20;98671.09;10329377;28;882;-73
2024/03/11 18:03:39;;;;;;;;;;;;;;;18.28;44.21;98673.75;10328610;28;1538;-72
2024/03/11 18:08:38;;;;;;;;;;;;;;;18.29;44.21;98682.53;10328185;28;1055;-72
2024/03/11 18:13:33;;;;;;;;;;;;;;;18.28;44.22;98686.94;10328560;28;1874;-74
2024/03/11 18:18:30;;;;;;;;;;;;;;;18.28;44.20;98686.09;10328363;28;881;-73
2024/03/11 18:23:26;;;;;;;;;;;;;;;18.28;44.12;98686.94;10328154;28;819;-74
2024/03/11 18:28:23;;;;;;;;;;;;;;;18.28;44.34;98694.00;10327076;28;1240;-75
2024/03/11 18:33:19;;;;;;;;;;;;;;;18.29;44.22;98701.00;10327102;28;1967;-74
2024/03/11 18:38:15;;;;;;;;;;;;;;;18.28;44.19;98700.13;10326990;28;881;-73
2024/03/11 18:43:14;;;;;;;;;;;;;;;18.28;44.16;98692.19;10326774;28;766;-74
2024/03/11 18:48:10;;;;;;;;;;;;;;;18.29;44.18;98703.63;10326707;28;826;-74
2024/03/11 18:53:07;;;;;;;;;;;;;;;18.30;44.27;98713.22;10326716;28;1935;-74
2024/03/11 18:58:04;;;;;;;;;;;;;;;18.29;44.20;98719.44;10326175;28;899;-74
2024/03/11 19:02:59;;;;;;;;;;;;;;;18.30;44.28;98719.34;10326006;28;1055;-73
2024/03/11 19:07:55;;;;;;;;;;;;;;;18.31;44.19;98722.81;10326499;28;830;-74
2024/03/11 19:12:51;;;;;;;;;;;;;;;18.30;44.39;98729.06;10325608;28;1893;-74
2024/03/11 19:17:47;;;;;;;;;;;;;;;18.30;44.12;98731.69;10326203;28;822;-76
2024/03/11 19:22:44;;;;;;;;;;;;;;;18.31;44.33;98743.91;10325554;28;842;-74
2024/03/11 19:27:42;;;;;;;;;;;;;;;18.31;44.38;98749.19;10325708;28;887;-74
2024/03/11 19:32:38;;;;;;;;;;;;;;;18.31;44.28;98754.47;10325711;28;1985;-74
2024/03/11 19:37:35;;;;;;;;;;;;;;;18.31;44.22;98762.38;10307833;28;1813;-74
2024/03/11 19:42:31;;;;;;;;;;;;;;;18.32;44.19;98764.09;10325703;28;888;-74
2024/03/11 19:47:26;;;;;;;;;;;;;;;18.31;44.14;98768.53;10325558;28;866;-74
2024/03/11 19:52:22;;;;;;;;;;;;;;;18.32;44.10;98774.66;10325392;28;1986;-74
2024/03/11 19:57:18;;;;;;;;;;;;;;;18.32;44.24;98782.56;10324261;28;838;-74
2024/03/11 20:02:14;;;;;;;;;;;;;;;18.33;44.06;98789.53;10325379;28;948;-74
2024/03/11 20:07:11;;;;;;;;;;;;;;;18.33;44.27;98800.94;10325000;28;866;-73
2024/03/11 20:12:06;;;;;;;;;;;;;;;18.34;44.45;98809.72;10324366;28;1894;-74
2024/03/11 20:17:02;;;;;;;;;;;;;;;18.33;44.30;98806.19;10325027;28;1001;-74
2024/03/11 20:21:58;;;;;;;;;;;;;;;18.34;44.38;98809.72;10324976;28;1208;-74
2024/03/11 20:26:54;;;;;;;;;;;;;;;18.34;44.31;98817.63;10330811;28;822;-74
2024/03/11 20:31:50;;;;;;;;;;;;;;;18.34;44.32;98821.13;10332258;28;1910;-74
2024/03/11 20:36:47;;;;;;;;;;;;;;;18.33;44.18;98827.31;10332513;28;827;-73
2024/03/11 20:41:43;;;;;;;;;;;;;;;18.34;44.31;98838.75;10331717;28;884;-74
2024/03/11 20:46:39;;;;;;;;;;;;;;;18.33;44.29;98842.28;10330767;28;890;-74
2024/03/11 20:51:38;;;;;;;;;;;;;;;18.33;44.07;98855.47;10331797;28;1886;-74
2024/03/11 20:56:33;;;;;;;;;;;;;;;18.32;44.34;98856.44;10330907;28;911;-74
2024/03/11 21:01:31;;;;;;;;;;;;;;;18.31;44.37;98868.78;10330836;28;740;-74
2024/03/11 21:06:27;;;;;;;;;;;;;;;18.31;44.27;98865.28;10330673;28;818;-74
2024/03/11 21:11:23;;;;;;;;;;;;;;;18.30;44.22;98868.88;10330403;28;1886;-74
2024/03/11 21:16:21;;;;;;;;;;;;;;;18.29;44.28;98880.38;10330959;28;785;-74
2024/03/11 21:21:23;;;;;;;;;;;;;;;18.28;44.32;98874.22;10330144;28;970;-74
2024/03/11 21:26:28;;;;;;;;;;;;;;;18.28;44.43;98881.28;10330478;28;853;-74
2024/03/11 21:31:24;;;;;;;;;;;;;;;18.27;44.31;98874.31;10328721;28;1909;-74
2024/03/11 21:36:20;;;;;;;;;;;;;;;18.25;44.25;98882.31;10329311;28;1016;-74
2024/03/11 21:41:18;;;;;;;;;;;;;;;18.26;44.14;98888.44;10329644;28;924;-74
2024/03/11 21:46:14;;;;;;;;;;;;;;;18.25;44.19;98892.03;10330167;28;866;-74
2024/03/11 21:51:11;;;;;;;;;;;;;;;18.23;44.12;98896.53;10328542;28;1901;-74
2024/03/11 21:56:07;;;;;;;;;;;;;;;18.23;44.43;98901.81;10329635;28;873;-73
2024/03/11 22:01:04;;;;;;;;;;;;;;;18.22;44.16;98897.47;10328908;28;888;-74
2024/03/11 22:06:00;;;;;;;;;;;;;;;18.18;44.36;98902.94;10328676;28;830;-74
2024/03/11 22:10:56;;;;;;;;;;;;;;;18.17;44.21;98917.06;10328349;28;1980;-74
2024/03/11 22:15:52;;;;;;;;;;;;;;;18.16;44.33;98920.66;10328796;28;814;-73
2024/03/11 22:20:48;;;;;;;;;;;;;;;18.15;44.16;98921.56;10327966;28;969;-73
2024/03/11 22:25:44;;;;;;;;;;;;;;;18.13;44.29;98912.91;10327853;28;961;-73
2024/03/11 22:30:40;;;;;;;;;;;;;;;18.12;44.37;98911.19;10327924;28;1910;-74
2024/03/11 22:35:36;;;;;;;;;;;;;;;18.10;44.26;98915.72;10327445;28;810;-73
2024/03/11 22:40:33;;;;;;;;;;;;;;;18.09;44.37;98921.09;10327143;28;933;-72
2024/03/11 22:45:29;;;;;;;;;;;;;;;18.08;44.37;98922.03;10327596;28;795;-73
2024/03/11 22:50:25;;;;;;;;;;;;;;;18.06;44.43;98924.75;10326907;28;1955;-73
2024/03/11 22:55:21;;;;;;;;;;;;;;;18.06;44.36;98923.91;10326084;28;838;-73
2024/03/11 23:00:39;;;;;;;;;;;;;;;18.04;44.28;98915.22;10327053;28;952;-74
2024/03/11 23:05:33;;;;;;;;;;;;;;;18.02;44.35;98914.44;10325890;28;1667;-73
2024/03/11 23:10:29;;;;;;;;;;;;;;;18.01;44.51;98921.53;10326064;28;1972;-73
2024/03/11 23:15:25;;;;;;;;;;;;;;;17.99;44.38;98923.38;10326049;28;974;-73
2024/03/11 23:20:26;;;;;;;;;;;;;;;17.98;44.48;98928.78;10325891;28;1378;-74
2024/03/11 23:25:21;;;;;;;;;;;;;;;17.97;44.55;98930.53;10325100;28;870;-73
2024/03/11 23:30:18;;;;;;;;;;;;;;;17.95;44.35;98927.16;10325672;28;1985;-73
2024/03/11 23:35:14;;;;;;;;;;;;;;;17.94;44.29;98938.63;10325487;28;953;-73
2024/03/11 23:40:14;;;;;;;;;;;;;;;17.93;44.34;98944.84;10325770;28;887;-74
2024/03/11 23:45:12;;;;;;;;;;;;;;;17.93;44.46;98950.13;10325343;28;877;-74
2024/03/11 23:50:11;;;;;;;;;;;;;;;17.91;44.44;98946.72;10325884;28;2012;-73
2024/03/11 23:55:10;;;;;;;;;;;;;;;17.90;44.35;98959.03;10325068;28;1077;-74
